Météo aéronautique

 

LFSI - St. Dizier/Robin, France
Distance from station: SO 26km
Mise à jour: 08/12/2019 10:30
couvert
couvert
 Wind from SSO
Vent: SSO 26 km/h
Température: 11°C
Point de rosée: 9°C
Humidité: 88%
Baromètre: 1012 hPa
Clouds: couvert
Visibility: 10 km
Cloud details: couvert 366 m
2019/12/08 09:30 LFSI 080930Z AUTO 21014KT 9999 OVC012 11/09 Q1012
LFSO - Nancy/Ochey (faf, France
Distance from station: ESE 62km
Mise à jour: 08/12/2019 10:30
couvert
couvert
 Wind from SSO
Vent: SSO 37 km/h
Température: 9°C
Wind Chill: 4°C
Point de rosée: 7°C
Humidité: 87%
Baromètre: 1012 hPa
Clouds: couvert
Visibility: 10 km
Cloud details: nuageux 457 m
nuageux 610 m
couvert 762 m
2019/12/08 09:30 LFSO 080930Z AUTO 21020KT 9999 BKN015 BKN020 OVC025 09/07 Q1012
LFOK - Chalons/Vatry Fa, France
Distance from station: O 73km
Mise à jour: 08/12/2019 10:30
Pluie, couvert
Pluie, couvert
 Wind from SSO
Vent: SSO 35 km/h
Température: 10°C
Wind Chill: 6°C
Point de rosée: 10°C
Humidité: 100%
Baromètre: 1010 hPa
Résumé: Pluie
Clouds: couvert
Visibility: 9 km
Cloud details: couvert 366 m
2019/12/08 09:30 LFOK 080930Z AUTO 21019KT 9000 RA OVC012 10/10 Q1010 TEMPO 21020G30KT 4000 RA OVC005
 
LFSN - Nancy/Essey, France
Distance from station: E 77km
Mise à jour: 08/12/2019 10:30
couvert
couvert
 Wind from SSO
Vent: SSO 15 km/h
Température: 10°C
Wind Chill: 8°C
Point de rosée: 7°C
Humidité: 82%
Baromètre: 1012 hPa
Clouds: couvert
Visibility: 10 km
Cloud details: couvert 579 m
2019/12/08 09:30 LFSN 080930Z AUTO 20008KT 160V230 9999 OVC019 10/07 Q1012
LFSG - Epinal/Mirecourt, France
Distance from station: SE 81km
Mise à jour: 08/12/2019 10:30
couvert
couvert
 Wind from SSO
Vent: SSO 31 km/h
Température: 9°C
Wind Chill: 5°C
Point de rosée: 7°C
Humidité: 87%
Baromètre: 1013 hPa
Clouds: couvert
Visibility: 10 km
Cloud details: couvert 732 m
2019/12/08 09:30 LFSG 080930Z AUTO 20017KT 9999 OVC024 09/07 Q1013
LFJL - Metz-Nancy-Lorra, France
Distance from station: ENE 82km
Mise à jour: 08/12/2019 10:30
couvert
couvert
 Wind from SSO
Vent: SSO 28 km/h
Température: 10°C
Wind Chill: 7°C
Point de rosée: 8°C
Humidité: 88%
Baromètre: 1011 hPa
Clouds: couvert
Visibility: 10 km
Cloud details: nuageux 396 m
couvert 549 m
2019/12/08 09:30 LFJL 080930Z AUTO 20015KT 9999 BKN013 OVC018 10/08 Q1011 TEMPO 21015G25KT 4000 RA BKN008
 
LFQA - Reims/Prunay, France
Distance from station: ONO 89km
Mise à jour: 08/12/2019 10:30
pluie légère, couvert
pluie légère, couvert
 Wind from SO
Vent: SO 24 km/h
Température: 11°C
Point de rosée: 9°C
Humidité: 88%
Baromètre: 1009 hPa
Résumé: pluie légère
Clouds: couvert
Visibility: 10 km
Cloud details: couvert 488 m
2019/12/08 09:30 LFQA 080930Z AUTO 22013KT 190V250 9999 -RA OVC016 11/09 Q1009
LFQB - Troyes/Barberey, France
Distance from station: OSO 99km
Mise à jour: 08/12/2019 10:30
Thunderstorm
Thunderstorm
 Wind from SSO
Vent: SSO 33 km/h
Température: 12°C
Point de rosée: 9°C
Humidité: 82%
Baromètre: 1012 hPa
Clouds: Thunderstorm
Visibility: 10 km
Cloud details: nuageux 610 m
couvert 762 m
2019/12/08 09:30 LFQB 080930Z AUTO 20018KT 9999 BKN020/// OVC025/// ///TCU 12/09 Q1012